createdAt,value
2017-12-28T00:02:15.001Z,3.34
2017-12-28T00:04:40.784Z,3.36
2017-12-28T00:07:07.533Z,3.33
2017-12-28T00:09:33.334Z,3.32
2017-12-28T00:12:02.735Z,3.30
2017-12-28T00:14:28.585Z,3.23
2017-12-28T00:16:57.123Z,3.22
2017-12-28T00:19:22.986Z,3.22
2017-12-28T00:21:51.960Z,3.13
2017-12-28T00:24:17.777Z,3.08
2017-12-28T00:26:46.758Z,3.12
2017-12-28T00:29:12.564Z,3.03
2017-12-28T00:31:42.015Z,3.02
2017-12-28T00:34:07.859Z,3.11
2017-12-28T00:36:33.750Z,3.13
2017-12-28T00:38:59.593Z,3.11
2017-12-28T00:41:25.447Z,3.10
2017-12-28T00:43:52.687Z,3.06
2017-12-28T00:46:18.495Z,3.08
2017-12-28T00:48:51.144Z,3.13
2017-12-28T00:51:16.956Z,3.20
2017-12-28T00:53:42.764Z,3.20
2017-12-28T00:56:08.592Z,3.18
2017-12-28T00:58:38.235Z,3.28
2017-12-28T01:01:04.011Z,3.36
2017-12-28T01:03:33.466Z,3.41
2017-12-28T01:05:59.252Z,3.38
2017-12-28T01:08:26.946Z,3.44
2017-12-28T01:10:52.736Z,3.50
2017-12-28T01:13:18.542Z,3.54
2017-12-28T01:15:44.318Z,3.55
2017-12-28T01:18:10.133Z,3.54
2017-12-28T01:20:39.189Z,3.52
2017-12-28T01:23:04.996Z,3.56
2017-12-28T01:25:33.310Z,3.53
2017-12-28T01:27:59.088Z,3.51
2017-12-28T01:30:27.395Z,3.53
2017-12-28T01:32:53.179Z,3.59
2017-12-28T01:35:22.850Z,3.62
2017-12-28T01:37:51.616Z,3.53
2017-12-28T01:40:17.453Z,3.60
2017-12-28T01:42:43.296Z,3.56
2017-12-28T01:45:12.573Z,3.57
2017-12-28T01:47:50.846Z,3.54
2017-12-28T01:50:16.659Z,3.53
2017-12-28T01:52:42.462Z,3.57
2017-12-28T01:55:08.284Z,3.58
2017-12-28T01:57:34.113Z,3.62
2017-12-28T01:59:59.950Z,3.59
2017-12-28T02:02:25.756Z,3.54
2017-12-28T02:04:51.626Z,3.58
2017-12-28T02:07:17.433Z,3.60
2017-12-28T02:09:43.241Z,3.54
2017-12-28T02:12:09.098Z,3.53
2017-12-28T02:14:34.913Z,3.60
2017-12-28T02:17:02.161Z,3.56
2017-12-28T02:19:28.002Z,3.61
2017-12-28T02:21:57.412Z,3.63
2017-12-28T02:24:23.205Z,3.65
2017-12-28T02:26:49.050Z,3.62
2017-12-28T02:29:14.851Z,3.59
2017-12-28T02:31:40.648Z,3.59
2017-12-28T02:34:10.524Z,3.57
2017-12-28T02:36:36.314Z,3.58
2017-12-28T02:39:03.606Z,3.54
2017-12-28T02:41:29.460Z,3.52
2017-12-28T02:43:58.776Z,3.60
2017-12-28T02:46:24.720Z,3.65
2017-12-28T02:48:52.753Z,3.63
2017-12-28T02:51:18.578Z,3.61
2017-12-28T02:53:47.504Z,3.62
2017-12-28T02:56:13.328Z,3.63
2017-12-28T02:58:42.118Z,3.62
2017-12-28T03:01:07.919Z,3.61
2017-12-28T03:03:33.717Z,3.59
2017-12-28T03:05:59.576Z,3.62
2017-12-28T03:08:25.429Z,3.58
2017-12-28T03:10:54.744Z,3.61
2017-12-28T03:13:20.556Z,3.49
2017-12-28T03:15:49.988Z,3.46
2017-12-28T03:18:15.839Z,3.46
2017-12-28T03:20:43.800Z,3.44
2017-12-28T03:23:09.616Z,3.43
2017-12-28T03:25:38.788Z,3.47
2017-12-28T03:28:04.733Z,3.37
2017-12-28T03:30:33.898Z,3.32
2017-12-28T03:32:59.749Z,3.36
2017-12-28T03:35:29.360Z,3.36
2017-12-28T03:37:55.215Z,3.33
2017-12-28T03:40:21.041Z,3.34
2017-12-28T03:42:46.876Z,3.36
2017-12-28T03:45:12.742Z,3.36
2017-12-28T03:47:39.711Z,3.36
2017-12-28T03:50:05.598Z,3.37
2017-12-28T03:52:35.046Z,3.38
2017-12-28T03:55:00.857Z,3.41
2017-12-28T03:57:28.505Z,3.45
2017-12-28T03:59:54.373Z,3.47
2017-12-28T04:02:20.899Z,3.50
2017-12-28T04:04:46.727Z,3.45
2017-12-28T04:07:12.576Z,3.51
2017-12-28T04:09:41.386Z,3.45
2017-12-28T04:12:07.196Z,3.42
2017-12-28T04:14:35.080Z,3.35
2017-12-28T04:17:00.912Z,3.21
2017-12-28T04:19:30.618Z,3.16
2017-12-28T04:21:56.470Z,3.21
2017-12-28T04:24:26.257Z,3.22
2017-12-28T04:26:52.101Z,3.09
2017-12-28T04:29:21.141Z,3.10
2017-12-28T04:31:47.004Z,3.00
2017-12-28T04:34:15.946Z,3.02
2017-12-28T04:36:41.783Z,2.95
2017-12-28T04:39:08.940Z,2.83
2017-12-28T04:41:34.787Z,2.80
2017-12-28T04:44:04.049Z,2.74
2017-12-28T04:46:29.912Z,2.79
2017-12-28T04:48:58.786Z,2.80
2017-12-28T04:51:24.620Z,2.73
2017-12-28T04:53:50.478Z,2.69
2017-12-28T04:56:16.290Z,2.59
2017-12-28T04:58:42.132Z,2.59
2017-12-28T05:01:10.851Z,2.54
2017-12-28T05:03:36.649Z,2.52
2017-12-28T05:06:06.403Z,2.50
2017-12-28T05:08:32.246Z,2.47
2017-12-28T05:11:01.304Z,2.49
2017-12-28T05:13:27.136Z,2.40
2017-12-28T05:15:54.368Z,2.42
2017-12-28T05:18:20.200Z,2.38
2017-12-28T05:20:49.249Z,2.35
2017-12-28T05:23:15.085Z,2.39
2017-12-28T05:25:44.299Z,2.29
2017-12-28T05:28:10.076Z,2.32
2017-12-28T05:30:35.941Z,2.28
2017-12-28T05:33:01.800Z,2.23
2017-12-28T05:35:27.607Z,2.22
2017-12-28T05:37:56.945Z,2.20
2017-12-28T05:40:22.795Z,2.16
2017-12-28T05:42:52.088Z,2.21
2017-12-28T05:45:17.922Z,2.22
2017-12-28T05:47:45.171Z,2.21
2017-12-28T05:50:11.010Z,2.21
2017-12-28T05:52:40.257Z,2.20
2017-12-28T05:55:06.129Z,2.22
2017-12-28T05:57:35.215Z,2.21
2017-12-28T06:00:01.051Z,2.16
2017-12-28T06:02:28.679Z,2.08
2017-12-28T06:04:54.497Z,2.08
2017-12-28T06:07:20.367Z,2.08
2017-12-28T06:09:46.159Z,2.04
2017-12-28T06:12:11.977Z,2.06
2017-12-28T06:14:41.094Z,2.10
2017-12-28T06:17:06.943Z,2.13
2017-12-28T06:19:36.126Z,2.09
2017-12-28T06:22:01.949Z,2.09
2017-12-28T06:24:33.883Z,2.11
2017-12-28T06:27:00.290Z,2.07
2017-12-28T06:29:26.130Z,2.07
2017-12-28T06:31:51.916Z,2.07
2017-12-28T06:34:21.316Z,2.08
2017-12-28T06:36:47.119Z,2.08
2017-12-28T06:39:14.269Z,2.12
2017-12-28T06:41:40.132Z,2.11
2017-12-28T06:44:05.937Z,2.07
2017-12-28T06:46:31.753Z,2.07
2017-12-28T06:48:57.604Z,2.04
2017-12-28T06:51:26.761Z,1.97
2017-12-28T06:53:52.626Z,2.02
2017-12-28T06:56:21.115Z,2.01
2017-12-28T06:58:46.975Z,2.05
2017-12-28T07:01:17.322Z,2.01
2017-12-28T07:03:43.172Z,2.02
2017-12-28T07:06:10.718Z,1.99
2017-12-28T07:08:36.535Z,1.92
2017-12-28T07:11:05.734Z,1.96
2017-12-28T07:13:31.547Z,1.94
2017-12-28T07:16:00.902Z,1.96
2017-12-28T07:18:26.766Z,1.94
2017-12-28T07:20:52.597Z,1.96
2017-12-28T07:23:18.428Z,2.03
2017-12-28T07:25:44.260Z,2.07
2017-12-28T07:28:11.310Z,2.02
2017-12-28T07:30:37.184Z,2.02
2017-12-28T07:33:06.032Z,2.03
2017-12-28T07:35:31.854Z,1.99
2017-12-28T07:38:00.482Z,1.99
2017-12-28T07:40:26.354Z,2.08
2017-12-28T07:45:23.175Z,2.06
2017-12-28T07:47:50.618Z,2.05
2017-12-28T07:50:16.458Z,2.08
2017-12-28T07:52:45.630Z,2.14
2017-12-28T07:55:11.472Z,2.15
2017-12-28T07:57:37.261Z,2.16
2017-12-28T08:00:03.179Z,2.13
2017-12-28T08:02:29.001Z,2.14
2017-12-28T08:04:58.321Z,2.17
2017-12-28T08:07:24.159Z,2.21
2017-12-28T08:09:53.895Z,2.17
2017-12-28T08:12:19.702Z,2.18
2017-12-28T08:14:46.488Z,2.24
2017-12-28T08:17:12.576Z,2.23
2017-12-28T08:19:42.290Z,2.20
2017-12-28T08:22:08.117Z,2.21
2017-12-28T08:24:35.399Z,2.26
2017-12-28T08:27:02.388Z,2.23
2017-12-28T08:29:31.405Z,2.27
2017-12-28T08:31:57.230Z,2.23
2017-12-28T08:34:23.078Z,2.23
2017-12-28T08:36:48.922Z,2.23
2017-12-28T08:39:14.737Z,2.24
2017-12-28T08:41:42.424Z,2.21
2017-12-28T08:44:08.262Z,2.27
2017-12-28T08:46:36.602Z,2.24
2017-12-28T08:49:02.388Z,2.23
2017-12-28T08:51:31.817Z,2.32
2017-12-28T08:53:57.651Z,2.35
2017-12-28T08:56:26.714Z,2.32
2017-12-28T08:58:52.556Z,2.32
2017-12-28T09:01:20.841Z,2.32
2017-12-28T09:03:46.679Z,2.42
2017-12-28T09:06:16.110Z,2.39
2017-12-28T09:08:41.988Z,2.43
2017-12-28T09:11:07.794Z,2.48
2017-12-28T09:13:33.579Z,2.57
2017-12-28T09:15:59.422Z,2.63
2017-12-28T09:18:28.244Z,2.64
2017-12-28T09:20:54.073Z,2.56
2017-12-28T09:23:22.933Z,2.55
2017-12-28T09:25:48.765Z,2.58
2017-12-28T09:28:18.469Z,2.63
2017-12-28T09:30:44.335Z,2.65
2017-12-28T09:33:11.851Z,2.73
2017-12-28T09:35:37.729Z,2.73
2017-12-28T09:38:06.352Z,2.68
2017-12-28T09:40:32.190Z,2.66
2017-12-28T09:43:00.697Z,2.67
2017-12-28T09:45:26.534Z,2.66
2017-12-28T09:47:52.397Z,2.75
2017-12-28T09:50:18.198Z,2.79
2017-12-28T09:52:43.989Z,2.84
2017-12-28T09:55:13.340Z,2.84
2017-12-28T09:57:39.161Z,2.73
2017-12-28T10:00:08.715Z,2.82
2017-12-28T10:02:34.509Z,2.84
2017-12-28T10:05:03.444Z,2.75
2017-12-28T10:07:29.285Z,2.68
2017-12-28T10:09:58.297Z,2.65
2017-12-28T10:12:24.123Z,2.61
2017-12-28T10:14:51.884Z,2.67
2017-12-28T10:17:17.712Z,2.73
2017-12-28T10:19:46.633Z,2.75
2017-12-28T10:22:12.500Z,2.78
2017-12-28T10:24:38.302Z,2.71
2017-12-28T10:27:04.655Z,2.79
2017-12-28T10:29:30.467Z,2.85
2017-12-28T10:31:59.501Z,2.95
2017-12-28T10:34:25.276Z,2.93
2017-12-28T10:36:54.190Z,2.89
2017-12-28T10:39:19.982Z,2.77
2017-12-28T10:41:49.240Z,2.67
2017-12-28T10:44:15.078Z,2.73
2017-12-28T10:46:42.639Z,2.77
2017-12-28T10:49:08.417Z,2.77
2017-12-28T10:51:37.916Z,2.72
2017-12-28T10:54:03.765Z,2.68
2017-12-28T10:56:31.446Z,2.56
2017-12-28T10:58:57.264Z,2.44
2017-12-28T11:01:23.121Z,2.48
2017-12-28T11:03:48.976Z,2.56
2017-12-28T11:06:14.781Z,2.66
2017-12-28T11:08:44.273Z,2.76
2017-12-28T11:11:10.074Z,2.84
2017-12-28T11:13:38.602Z,2.92
2017-12-28T11:16:04.465Z,2.94
2017-12-28T11:18:34.027Z,2.89
2017-12-28T11:20:59.873Z,2.94
2017-12-28T11:23:28.680Z,2.99
2017-12-28T11:25:54.481Z,2.97
2017-12-28T11:28:22.122Z,3.07
2017-12-28T11:30:47.965Z,3.12
2017-12-28T11:33:17.183Z,3.10
2017-12-28T11:35:43.058Z,3.05
2017-12-28T11:38:08.852Z,3.01
2017-12-28T11:40:34.654Z,3.06
2017-12-28T11:43:00.496Z,3.07
2017-12-28T11:45:30.066Z,3.12
2017-12-28T11:47:55.952Z,3.17
2017-12-28T11:50:31.224Z,3.16
2017-12-28T11:53:03.098Z,3.16
2017-12-28T11:55:30.744Z,3.01
2017-12-28T11:57:56.642Z,3.19
2017-12-28T12:00:26.593Z,3.08
2017-12-28T12:02:58.366Z,3.09
2017-12-28T12:05:24.199Z,3.13
2017-12-28T12:07:50.084Z,3.13
2017-12-28T12:10:21.899Z,3.19
2017-12-28T12:12:47.746Z,3.09
2017-12-28T12:15:13.584Z,3.16
2017-12-28T12:17:39.377Z,2.99
2017-12-28T12:20:05.165Z,2.99
2017-12-28T12:22:30.993Z,2.91
2017-12-28T12:24:56.795Z,2.80
2017-12-28T12:27:22.643Z,2.77
2017-12-28T12:29:48.441Z,2.65
2017-12-28T12:32:14.312Z,2.50
2017-12-28T12:34:40.146Z,2.58
2017-12-28T12:37:05.973Z,2.59
2017-12-28T12:39:31.768Z,2.60
2017-12-28T12:41:57.625Z,2.57
2017-12-28T12:44:23.428Z,2.61
2017-12-28T12:46:49.249Z,2.67
2017-12-28T12:49:15.088Z,2.82
2017-12-28T12:51:40.894Z,2.81
2017-12-28T12:54:06.754Z,2.58
2017-12-28T12:56:32.577Z,2.47
2017-12-28T12:58:59.736Z,2.38
2017-12-28T13:01:25.577Z,2.43
2017-12-28T13:03:54.756Z,2.41
2017-12-28T13:06:20.593Z,2.36
2017-12-28T13:08:50.270Z,2.43
2017-12-28T13:11:16.166Z,2.39
2017-12-28T13:13:43.440Z,2.31
2017-12-28T13:16:09.278Z,2.35
2017-12-28T13:18:41.827Z,2.24
2017-12-28T13:21:07.656Z,2.20
2017-12-28T13:23:33.485Z,2.16
2017-12-28T13:25:59.303Z,2.19
2017-12-28T13:28:25.092Z,2.20
2017-12-28T13:30:50.937Z,2.20
2017-12-28T13:33:16.774Z,2.19
2017-12-28T13:35:44.377Z,2.25
2017-12-28T13:38:10.246Z,2.14
2017-12-28T13:40:38.905Z,2.09
2017-12-28T13:43:04.767Z,2.03
2017-12-28T13:48:01.503Z,2.08
2017-12-28T13:50:28.523Z,2.10
2017-12-28T13:52:54.366Z,2.09
2017-12-28T13:55:23.724Z,1.98
2017-12-28T13:57:49.573Z,1.94
2017-12-28T14:00:18.676Z,1.93
2017-12-28T14:02:44.516Z,1.91
2017-12-28T14:05:10.299Z,1.90
2017-12-28T14:07:36.112Z,1.91
2017-12-28T14:10:01.925Z,1.89
2017-12-28T14:12:29.945Z,1.99
2017-12-28T14:14:55.807Z,1.83
2017-12-28T14:17:24.905Z,1.79
2017-12-28T14:19:50.724Z,1.81
2017-12-28T14:22:19.961Z,1.81
2017-12-28T14:24:45.801Z,1.80
2017-12-28T14:27:14.990Z,1.87
2017-12-28T14:29:40.834Z,1.85
2017-12-28T14:32:08.391Z,1.90
2017-12-28T14:34:34.261Z,1.87
2017-12-28T14:37:03.069Z,1.89
2017-12-28T14:39:28.892Z,1.87
2017-12-28T14:41:54.703Z,1.82
2017-12-28T14:44:20.509Z,1.82
2017-12-28T14:46:46.453Z,1.84
2017-12-28T14:49:15.322Z,1.80
2017-12-28T14:51:41.148Z,1.79
2017-12-28T14:54:10.754Z,1.72
2017-12-28T14:56:36.562Z,1.75
2017-12-28T14:59:06.301Z,1.76
2017-12-28T15:01:32.155Z,1.80
2017-12-28T15:03:59.503Z,1.73
2017-12-28T15:06:25.330Z,1.72
2017-12-28T15:08:54.816Z,1.75
2017-12-28T15:11:20.635Z,1.79
2017-12-28T15:13:49.973Z,1.81
2017-12-28T15:16:15.787Z,1.80
2017-12-28T15:18:41.647Z,1.76
2017-12-28T15:21:07.484Z,1.86
2017-12-28T15:23:33.323Z,1.84
2017-12-28T15:26:01.061Z,1.80
2017-12-28T15:28:26.905Z,1.74
2017-12-28T15:30:56.370Z,1.78
2017-12-28T15:33:22.177Z,1.72
2017-12-28T15:35:50.120Z,1.74
2017-12-28T15:38:15.999Z,1.75
2017-12-28T15:40:44.662Z,1.78
2017-12-28T15:43:10.566Z,1.77
2017-12-28T15:45:39.999Z,1.75
2017-12-28T15:48:05.840Z,1.73
2017-12-28T15:50:34.666Z,1.75
2017-12-28T15:53:00.518Z,1.76
2017-12-28T15:55:26.399Z,1.71
2017-12-28T15:57:52.275Z,1.67
2017-12-28T16:00:18.108Z,1.71
2017-12-28T16:02:47.570Z,1.66
2017-12-28T16:05:13.372Z,1.64
2017-12-28T16:07:40.977Z,1.60
2017-12-28T16:10:06.801Z,1.54
2017-12-28T16:12:35.851Z,1.48
2017-12-28T16:15:01.702Z,1.48
2017-12-28T16:17:30.860Z,1.45
2017-12-28T16:19:56.689Z,1.49
2017-12-28T16:22:24.666Z,1.48
2017-12-28T16:24:50.466Z,1.48
2017-12-28T16:27:18.962Z,1.45
2017-12-28T16:29:44.867Z,1.42
2017-12-28T16:32:10.672Z,1.38
2017-12-28T16:34:36.475Z,1.38
2017-12-28T16:37:02.268Z,1.41
2017-12-28T16:39:31.401Z,1.47
2017-12-28T16:41:57.228Z,1.34
2017-12-28T16:44:26.685Z,1.38
2017-12-28T16:46:52.498Z,1.33
2017-12-28T16:49:22.061Z,1.30
2017-12-28T16:51:47.876Z,1.30
2017-12-28T16:54:17.077Z,1.28
2017-12-28T16:56:42.885Z,1.28
2017-12-28T16:59:10.003Z,1.28
2017-12-28T17:01:35.872Z,1.20
2017-12-28T17:04:05.107Z,1.21
2017-12-28T17:06:30.933Z,1.13
2017-12-28T17:08:56.771Z,1.10
2017-12-28T17:11:22.584Z,1.08
2017-12-28T17:13:48.396Z,1.09
2017-12-28T17:16:18.022Z,1.10
2017-12-28T17:18:43.845Z,1.09
2017-12-28T17:21:11.465Z,0.94
2017-12-28T17:23:37.275Z,0.89
2017-12-28T17:26:06.941Z,0.87
2017-12-28T17:28:32.754Z,0.94
2017-12-28T17:31:01.438Z,0.83
2017-12-28T17:33:27.276Z,0.79
2017-12-28T17:35:56.191Z,0.79
2017-12-28T17:38:22.033Z,0.79
2017-12-28T17:40:51.697Z,0.78
2017-12-28T17:43:17.542Z,0.80
2017-12-28T17:45:43.341Z,0.80
2017-12-28T17:48:09.224Z,0.74
2017-12-28T17:50:35.029Z,0.75
2017-12-28T17:53:01.814Z,0.74
2017-12-28T17:55:27.649Z,0.72
2017-12-28T17:57:56.942Z,0.68
2017-12-28T18:00:22.760Z,0.75
2017-12-28T18:02:52.497Z,0.69
2017-12-28T18:05:18.330Z,0.71
2017-12-28T18:07:45.922Z,0.70
2017-12-28T18:10:11.740Z,0.66
2017-12-28T18:12:40.377Z,0.68
2017-12-28T18:15:06.187Z,0.65
2017-12-28T18:17:32.721Z,0.63
2017-12-28T18:19:58.536Z,0.55
2017-12-28T18:22:24.378Z,0.51
2017-12-28T18:24:53.817Z,0.52
2017-12-28T18:27:19.632Z,0.46
2017-12-28T18:29:47.044Z,0.42
2017-12-28T18:32:13.012Z,0.32
2017-12-28T18:34:42.210Z,0.30
2017-12-28T18:37:08.052Z,0.26
2017-12-28T18:39:37.405Z,0.23
2017-12-28T18:42:03.236Z,0.24
2017-12-28T18:44:31.306Z,0.22
2017-12-28T18:46:57.138Z,0.21
2017-12-28T18:49:27.978Z,0.23
2017-12-28T18:51:53.835Z,0.27
2017-12-28T18:54:21.314Z,0.28
2017-12-28T18:56:47.129Z,0.33
2017-12-28T18:59:12.973Z,0.36
2017-12-28T19:01:38.766Z,0.37
2017-12-28T19:04:04.639Z,0.36
2017-12-28T19:06:32.376Z,0.37
2017-12-28T19:08:58.210Z,0.39
2017-12-28T19:11:27.537Z,0.38
2017-12-28T19:16:34.285Z,0.37
2017-12-28T19:19:00.076Z,0.37
2017-12-28T19:21:25.912Z,0.32
2017-12-28T19:23:51.755Z,0.30
2017-12-28T19:26:17.572Z,0.29
2017-12-28T19:28:43.401Z,0.22
2017-12-28T19:31:09.263Z,0.29
2017-12-28T19:33:35.095Z,0.33
2017-12-28T19:36:01.055Z,0.38
2017-12-28T19:38:26.867Z,0.33
2017-12-28T19:40:52.714Z,0.33
2017-12-28T19:43:18.574Z,0.26
2017-12-28T19:45:44.395Z,0.27
2017-12-28T19:48:12.702Z,0.23
2017-12-28T19:50:38.546Z,0.19
2017-12-28T19:53:07.660Z,0.20
2017-12-28T19:55:33.500Z,0.23
2017-12-28T19:58:03.225Z,0.24
2017-12-28T20:00:29.021Z,0.19
2017-12-28T20:02:58.410Z,0.18
2017-12-28T20:05:24.214Z,0.21
2017-12-28T20:07:51.312Z,0.25
2017-12-28T20:10:17.116Z,0.26
2017-12-28T20:12:42.945Z,0.28
2017-12-28T20:15:08.760Z,0.24
2017-12-28T20:17:34.600Z,0.17
2017-12-28T20:20:03.648Z,0.14
2017-12-28T20:22:29.501Z,0.13
2017-12-28T20:24:57.619Z,0.12
2017-12-28T20:27:23.413Z,0.10
2017-12-28T20:29:52.060Z,0.10
2017-12-28T20:32:17.867Z,0.08
2017-12-28T20:37:14.580Z,0.08
2017-12-28T20:39:43.657Z,0.07
2017-12-28T20:42:09.503Z,0.07
2017-12-28T20:44:37.089Z,0.09
2017-12-28T20:47:02.893Z,0.14
2017-12-28T20:49:28.737Z,0.12
2017-12-28T20:51:54.556Z,0.12
2017-12-28T20:54:20.415Z,0.12
2017-12-28T20:56:48.139Z,0.04
2017-12-28T20:59:13.969Z,0.10
2017-12-28T21:01:42.762Z,0.14
2017-12-28T21:04:08.601Z,0.16
2017-12-28T21:06:37.598Z,0.13
2017-12-28T21:09:03.463Z,0.14
2017-12-28T21:11:32.769Z,0.13
2017-12-28T21:13:58.600Z,0.14
2017-12-28T21:16:27.152Z,0.16
2017-12-28T21:18:52.946Z,0.20
2017-12-28T21:21:21.453Z,0.15
2017-12-28T21:23:47.282Z,0.11
2017-12-28T21:26:13.104Z,0.12
2017-12-28T21:28:38.942Z,0.11
2017-12-28T21:31:04.799Z,0.16
2017-12-28T21:33:35.045Z,0.18
2017-12-28T21:36:00.887Z,0.20
2017-12-28T21:38:29.716Z,0.20
2017-12-28T21:40:55.524Z,0.15
2017-12-28T21:43:24.865Z,0.12
2017-12-28T21:45:50.701Z,0.08
2017-12-28T21:48:17.804Z,0.09
2017-12-28T21:50:43.599Z,0.07
2017-12-28T21:53:12.232Z,0.12
2017-12-28T21:55:38.072Z,0.05
2017-12-28T21:58:06.858Z,0.05
2017-12-28T22:00:32.697Z,0.04
2017-12-28T22:02:58.548Z,0.02
2017-12-28T22:05:24.447Z,0.07
2017-12-28T22:07:50.270Z,0.05
2017-12-28T22:10:19.229Z,-0.02
2017-12-28T22:12:45.020Z,-0.08
2017-12-28T22:15:14.041Z,-0.12
2017-12-28T22:17:39.873Z,-0.15
2017-12-28T22:20:09.061Z,-0.17
2017-12-28T22:22:34.874Z,-0.19
2017-12-28T22:25:04.213Z,-0.20
2017-12-28T22:27:30.103Z,-0.15
2017-12-28T22:29:58.997Z,-0.16
2017-12-28T22:32:24.830Z,-0.16
2017-12-28T22:34:52.606Z,-0.15
2017-12-28T22:37:18.408Z,-0.15
2017-12-28T22:39:44.200Z,-0.19
2017-12-28T22:42:10.040Z,-0.19
2017-12-28T22:44:35.877Z,-0.18
2017-12-28T22:47:04.855Z,-0.21
2017-12-28T22:49:30.669Z,-0.21
2017-12-28T22:52:00.321Z,-0.23
2017-12-28T22:54:26.139Z,-0.26
2017-12-28T22:56:55.100Z,-0.25
2017-12-28T22:59:20.898Z,-0.33
2017-12-28T23:01:50.216Z,-0.37
2017-12-28T23:04:16.061Z,-0.41
2017-12-28T23:06:43.463Z,-0.45
2017-12-28T23:09:09.302Z,-0.43
2017-12-28T23:11:38.597Z,-0.43
2017-12-28T23:14:04.434Z,-0.43
2017-12-28T23:16:31.198Z,-0.49
2017-12-28T23:18:56.963Z,-0.48
2017-12-28T23:21:22.769Z,-0.52
2017-12-28T23:23:49.350Z,-0.51
2017-12-28T23:26:15.164Z,-0.49
2017-12-28T23:28:44.479Z,-0.48
2017-12-28T23:31:10.331Z,-0.42
2017-12-28T23:33:39.614Z,-0.36
2017-12-28T23:36:05.420Z,-0.36
2017-12-28T23:38:34.554Z,-0.34
2017-12-28T23:41:00.381Z,-0.31
2017-12-28T23:43:30.269Z,-0.34
2017-12-28T23:45:56.065Z,-0.42
2017-12-28T23:48:23.302Z,-0.40
2017-12-28T23:50:49.125Z,-0.40
2017-12-28T23:53:14.944Z,-0.40
2017-12-28T23:55:40.791Z,-0.35
2017-12-28T23:58:06.617Z,-0.32
